Gays Mills, WI

6:31 PM CDT on October 01, 2014 (GMT -0500)
Soldiers Grove area | Change Station
CLOSE
Current Station
Personal Weather Station
Location: Soldiers Grove, WI
Elevation: 1132 ft
Nearby Weather Stations

Elev 1132 ft 43.42 °N, 90.86 °W | Updated 4 seconds ago

Overcast
Overcast
64.3 °F
Feels Like 64.3 °F
N
0.0
Wind Variable Wind from SE
Gusts 1.0 mph

Today
High -- | Low -- °F
--% Chance of Precip.
Yesterday
High -- | Low -- °F
Precip. -- in
7:00 AM 6:44 PM
First Quarter, 52% visible
Pressure 29.83 in
Visibility 10.0 miles
Clouds Scattered Clouds 3800 ft
Overcast 5000 ft
Dew Point 58 °F
Humidity 80%
Rainfall 0.00 in
Snow Depth Not available.
UV 0 out of 12
Pollen 2.80 out of 12
Air Quality Not available.
Flu Activity Not available.
METAR KOVS 012253Z AUTO 19004KT 10SM SCT038 OVC050 22/13 A2982 RMK AO2 SLP099 T02220133 TSNO

More Conditions Fewer Conditions

Pressure 29.83 in
Visibility 10.0 miles
Clouds Scattered Clouds 3800 ft
Overcast 5000 ft
Dew Point 58 °F
Humidity 80%
Rainfall 0.00 in
Snow Depth Not available.
UV 0 out of 12
Pollen 2.80 out of 12
Air Quality Not available.
Flu Activity Not available.
METAR KOVS 012253Z AUTO 19004KT 10SM SCT038 OVC050 22/13 A2982 RMK AO2 SLP099 T02220133 TSNO

More Conditions Fewer Conditions

10-Day Weather Forecast

Almanac

Astronomy

Oct. 01, 2014 Rise Set
Actual Time 7:00 AM CDT 6:44 PM CDT
Civil Twilight 6:32 AM CDT 7:12 PM CDT
Nautical Twilight 5:59 AM CDT 7:45 PM CDT
Astronomical Twilight 5:25 AM CDT 8:19 PM CDT
Moon 2:09 PM CDT No Moon Set
Length of Visible Light 12h 40m
Length of Day
11h 43m
Tomorrow will be 2m 55s shorter.
First Quarter, 52% of the Moon is Illuminated
Today
First Quarter
Oct 8
Full
Oct 15
Last Quarter
Oct 23
New
Oct 30
First Quarter

Today's Extremes

State Highs State Lows

Community

WunderPhotos

Upload Photos

1,758,084 photos uploaded!

WunderBlogs® & News

By Dr. Jeff Masters
Director of Meteorology, Weather Underground
By Kari Strenfel
Meteorologist, Weather Underground
By Christopher C. Burt
Weather Historian, Weather Underground
October 1, 2014
October 1, 2014
October 1, 2014

Nearby

Snow Depth

Station Depth Elevation
No new snow has been reported.

Earthquake Activity

City Distance Mag. Time & Date
No recent earthquake activity has been reported nearby.
Minimum magnitude displayed is 2.5.

Coastal Water Temperatures

Place Temperature
No Stations Reporting

Nearby Weather Stations